Time;durP1;ratioP1;P1;durP2;ratioP2;P2;SDS_P1;SDS_P2;PMS_P1;PMS_P2;Temp;Humidity;BMP_temperature;BMP_pressure;BME280_temperature;BME280_humidity;BME280_pressure;Samples;Min_cycle;Max_cycle;Signal;HPM_P1;HPM_P2
2023/09/26 00:01:08;;;;;;;1.50;1.40;;;16.00;60.50;;;;;;5052771;28;20038;-47
2023/09/26 00:03:35;;;;;;;4.28;3.17;;;16.00;60.50;;;;;;5050447;28;20044;-48
2023/09/26 00:06:02;;;;;;;2.42;1.63;;;16.00;60.60;;;;;;5058464;28;20107;-48
2023/09/26 00:08:31;;;;;;;3.13;1.60;;;16.00;60.70;;;;;;5059900;28;20045;-46
2023/09/26 00:10:58;;;;;;;3.25;1.60;;;15.90;60.80;;;;;;5060497;28;20584;-46
2023/09/26 00:13:27;;;;;;;3.33;1.58;;;16.00;60.80;;;;;;5058665;28;20048;-46
2023/09/26 00:15:58;;;;;;;2.35;1.73;;;15.90;60.80;;;;;;5060542;28;20041;-48
2023/09/26 00:18:25;;;;;;;2.42;1.80;;;15.90;60.90;;;;;;5062636;28;20529;-46
2023/09/26 00:20:51;;;;;;;1.83;1.60;;;15.90;60.90;;;;;;5061172;28;20524;-46
2023/09/26 00:23:23;;;;;;;2.17;1.73;;;15.90;61.10;;;;;;5056202;28;20056;-45
2023/09/26 00:25:52;;;;;;;2.38;1.70;;;15.80;61.00;;;;;;5059092;28;20056;-46
2023/09/26 00:28:19;;;;;;;2.35;1.65;;;15.80;61.00;;;;;;5062010;28;20126;-47
2023/09/26 00:30:46;;;;;;;1.67;1.58;;;15.80;61.00;;;;;;5058318;28;20186;-46
2023/09/26 00:33:13;;;;;;;2.95;1.60;;;15.80;61.20;;;;;;5055399;28;20056;-45
2023/09/26 00:35:40;;;;;;;1.90;1.63;;;15.80;61.10;;;;;;5055380;28;20052;-45
2023/09/26 00:38:08;;;;;;;2.75;1.85;;;15.80;61.10;;;;;;5059095;28;20048;-47
2023/09/26 00:40:42;;;;;;;2.10;1.73;;;15.70;61.00;;;;;;5062885;28;20041;-45
2023/09/26 00:43:23;;;;;;;2.67;1.80;;;15.70;61.20;;;;;;5058553;28;20049;-46
2023/09/26 00:45:56;;;;;;;2.58;1.80;;;15.70;61.70;;;;;;5058454;28;20048;-47
2023/09/26 00:48:26;;;;;;;3.97;2.13;;;15.70;61.50;;;;;;5062559;28;20063;-49
2023/09/26 00:50:53;;;;;;;2.78;2.30;;;15.70;61.40;;;;;;5058927;28;20110;-49
2023/09/26 00:53:27;;;;;;;2.92;1.90;;;15.70;61.30;;;;;;5050555;28;20403;-47
2023/09/26 00:55:57;;;;;;;2.42;2.20;;;15.60;61.70;;;;;;5059865;28;20059;-45
2023/09/26 00:58:28;;;;;;;;;;;15.60;61.30;;;;;;5061965;28;20490;-46
2023/09/26 01:00:56;;;;;;;2.60;2.10;;;15.70;61.30;;;;;;5051512;28;19920;-46
2023/09/26 01:03:27;;;;;;;3.50;2.22;;;15.70;61.00;;;;;;5058962;28;20057;-46
2023/09/26 01:05:55;;;;;;;2.78;2.10;;;15.60;61.30;;;;;;5052466;28;20044;-49
2023/09/26 01:08:24;;;;;;;2.17;2.00;;;15.60;61.10;;;;;;5062187;28;20048;-47
2023/09/26 01:10:51;;;;;;;2.03;1.67;;;15.60;61.40;;;;;;5059791;28;20056;-48
2023/09/26 01:13:20;;;;;;;2.67;1.77;;;15.60;61.40;;;;;;5053085;28;20037;-50
2023/09/26 01:15:48;;;;;;;2.35;2.03;;;15.50;61.40;;;;;;5050549;28;20049;-47
2023/09/26 01:18:16;;;;;;;3.30;2.10;;;15.50;61.50;;;;;;5061127;28;20047;-47
2023/09/26 01:20:46;;;;;;;2.40;2.13;;;15.50;61.70;;;;;;5060203;28;20044;-46
2023/09/26 01:23:15;;;;;;;2.38;2.17;;;15.50;61.70;;;;;;5058102;28;20118;-47
2023/09/26 01:25:43;;;;;;;4.20;2.45;;;15.50;61.80;;;;;;5060804;28;20053;-45
2023/09/26 01:28:16;;;;;;;3.13;2.30;;;15.40;61.60;;;;;;5060374;28;20041;-48
2023/09/26 01:30:46;;;;;;;2.90;2.30;;;15.40;61.90;;;;;;5055087;28;20048;-47
2023/09/26 01:33:16;;;;;;;2.53;2.22;;;15.40;61.80;;;;;;5060556;28;20052;-47
2023/09/26 01:35:43;;;;;;;2.78;1.90;;;15.40;61.90;;;;;;5052946;28;20042;-45
2023/09/26 01:38:11;;;;;;;2.85;2.65;;;15.40;61.80;;;;;;5059334;28;20136;-49
2023/09/26 01:40:38;;;;;;;3.30;2.00;;;15.40;61.90;;;;;;5062821;28;20045;-45
2023/09/26 01:43:05;;;;;;;4.57;2.53;;;15.40;62.00;;;;;;5054256;28;20036;-49
2023/09/26 01:45:34;;;;;;;2.47;2.10;;;15.30;61.90;;;;;;5058693;28;20048;-47
2023/09/26 01:48:04;;;;;;;2.97;2.42;;;15.30;62.00;;;;;;5058341;28;20466;-47
2023/09/26 01:50:35;;;;;;;2.58;1.98;;;15.30;62.10;;;;;;5049859;28;20102;-46
2023/09/26 01:53:04;;;;;;;3.08;2.88;;;15.30;62.10;;;;;;5053052;28;20041;-45
2023/09/26 01:55:31;;;;;;;2.97;2.53;;;15.40;62.30;;;;;;5053360;28;20040;-47
2023/09/26 01:57:58;;;;;;;11.90;3.60;;;15.30;62.20;;;;;;5052868;28;20037;-45
2023/09/26 02:00:27;;;;;;;2.55;2.35;;;15.30;62.40;;;;;;5048397;28;20045;-46
2023/09/26 02:02:59;;;;;;;2.90;2.33;;;15.30;62.40;;;;;;5050272;28;20044;-48
2023/09/26 02:05:27;;;;;;;3.58;2.40;;;15.30;62.40;;;;;;5051863;28;20036;-46
2023/09/26 02:07:57;;;;;;;3.55;2.88;;;15.30;62.40;;;;;;5058697;28;20044;-45
2023/09/26 02:10:26;;;;;;;2.88;2.38;;;15.30;62.50;;;;;;5062288;28;20052;-45
2023/09/26 02:13:00;;;;;;;3.00;2.70;;;15.30;62.60;;;;;;5054730;28;20102;-46
2023/09/26 02:15:27;;;;;;;3.17;2.88;;;15.30;62.70;;;;;;5061326;28;20101;-46
2023/09/26 02:17:53;;;;;;;3.05;2.50;;;15.30;62.50;;;;;;5059058;28;20040;-46
2023/09/26 02:20:20;;;;;;;2.90;2.40;;;15.30;62.70;;;;;;5056643;28;20045;-46
2023/09/26 02:22:49;;;;;;;4.75;2.50;;;15.30;62.80;;;;;;5055472;28;20521;-50
2023/09/26 02:25:25;;;;;;;4.70;2.83;;;15.30;62.90;;;;;;5061940;28;20041;-48
2023/09/26 02:27:55;;;;;;;3.72;2.80;;;15.30;62.90;;;;;;5060636;28;20048;-46
2023/09/26 02:30:26;;;;;;;4.25;2.95;;;15.30;62.90;;;;;;5056174;28;20130;-45
2023/09/26 02:32:58;;;;;;;2.90;2.58;;;15.30;62.90;;;;;;5059235;28;20086;-47
2023/09/26 02:35:26;;;;;;;4.15;2.28;;;15.30;62.80;;;;;;5055393;28;20040;-47
2023/09/26 02:37:53;;;;;;;5.22;3.03;;;15.30;62.80;;;;;;5041767;28;20128;-50
2023/09/26 02:40:19;;;;;;;3.05;2.58;;;15.30;62.90;;;;;;5061661;28;20049;-44
2023/09/26 02:42:48;;;;;;;4.45;2.47;;;15.30;63.10;;;;;;5060092;28;20429;-48
2023/09/26 02:45:15;;;;;;;4.38;2.38;;;15.30;63.00;;;;;;5056924;28;20049;-45
2023/09/26 02:47:50;;;;;;;6.25;3.60;;;15.30;63.10;;;;;;5061595;28;20048;-45
2023/09/26 02:50:17;;;;;;;4.35;2.83;;;15.30;63.20;;;;;;5060184;28;20049;-47
2023/09/26 02:52:44;;;;;;;2.67;2.38;;;15.30;63.30;;;;;;5055432;28;20098;-47
2023/09/26 02:55:12;;;;;;;3.63;2.90;;;15.30;63.40;;;;;;5057683;28;20574;-45
2023/09/26 02:57:39;;;;;;;8.35;3.13;;;15.30;63.60;;;;;;5063158;28;20037;-46
2023/09/26 03:00:16;;;;;;;3.20;2.90;;;15.30;63.70;;;;;;5049312;28;20041;-47
2023/09/26 03:02:45;;;;;;;5.97;2.95;;;15.30;64.00;;;;;;5055484;28;20044;-49
2023/09/26 03:05:13;;;;;;;4.57;2.67;;;15.30;64.20;;;;;;5053299;28;20571;-46
2023/09/26 03:07:42;;;;;;;3.75;2.78;;;15.30;64.10;;;;;;5061185;28;20109;-45
2023/09/26 03:10:10;;;;;;;2.90;2.60;;;15.40;64.40;;;;;;5056525;28;20041;-48
2023/09/26 03:12:48;;;;;;;4.82;3.28;;;15.40;64.00;;;;;;5056488;28;20037;-46
2023/09/26 03:15:15;;;;;;;2.42;2.22;;;15.40;64.50;;;;;;5059568;28;20565;-45
2023/09/26 03:17:43;;;;;;;4.82;2.65;;;15.40;63.90;;;;;;5066122;28;20041;-46
2023/09/26 03:20:15;;;;;;;6.95;3.40;;;15.40;64.10;;;;;;5062641;28;20059;-48
2023/09/26 03:22:44;;;;;;;5.30;3.03;;;15.40;64.20;;;;;;5059494;28;20495;-44
2023/09/26 03:25:13;;;;;;;4.80;2.63;;;15.40;64.30;;;;;;5062240;28;20055;-46
2023/09/26 03:27:46;;;;;;;2.63;2.42;;;15.40;63.90;;;;;;5065729;28;20119;-48
2023/09/26 03:30:16;;;;;;;3.08;2.40;;;15.40;64.00;;;;;;5054620;28;20049;-45
2023/09/26 03:32:43;;;;;;;3.47;2.30;;;15.40;63.90;;;;;;5066075;28;20102;-48
2023/09/26 03:35:10;;;;;;;4.05;2.50;;;15.40;63.60;;;;;;5038683;28;20041;-45
2023/09/26 03:37:39;;;;;;;2.42;2.20;;;15.40;63.70;;;;;;5063833;28;20045;-46
2023/09/26 03:40:07;;;;;;;3.13;2.30;;;15.40;63.70;;;;;;5063467;28;20033;-47
2023/09/26 03:42:34;;;;;;;3.22;2.45;;;15.40;63.80;;;;;;5065836;28;20123;-47
2023/09/26 03:45:00;;;;;;;3.13;2.42;;;15.30;63.90;;;;;;5060929;28;20140;-46
2023/09/26 03:47:31;;;;;;;5.20;2.80;;;15.40;64.10;;;;;;5061655;28;20552;-45
2023/09/26 03:49:59;;;;;;;6.80;2.75;;;15.30;64.20;;;;;;5064537;28;20068;-47
2023/09/26 03:52:27;;;;;;;3.78;2.88;;;15.30;64.40;;;;;;5066157;28;20064;-50
2023/09/26 03:54:54;;;;;;;5.32;3.10;;;15.40;64.70;;;;;;5058661;28;20395;-45
2023/09/26 03:57:24;;;;;;;3.90;3.28;;;15.30;64.80;;;;;;5062033;28;20101;-47
2023/09/26 03:59:56;;;;;;;3.63;2.95;;;15.40;65.20;;;;;;5050660;28;20040;-46
2023/09/26 04:02:25;;;;;;;3.50;3.20;;;15.40;65.20;;;;;;5052508;28;20507;-47
2023/09/26 04:04:52;;;;;;;4.78;3.25;;;15.40;65.20;;;;;;5052210;28;20045;-47
2023/09/26 04:07:28;;;;;;;3.08;2.78;;;15.40;65.30;;;;;;5063922;28;20167;-46
2023/09/26 04:09:57;;;;;;;4.30;2.70;;;15.40;65.20;;;;;;5064308;28;20411;-47
2023/09/26 04:12:28;;;;;;;5.45;2.92;;;15.40;65.30;;;;;;5054805;28;20138;-45
2023/09/26 04:14:55;;;;;;;3.90;3.10;;;15.40;65.30;;;;;;5062138;28;20044;-47
2023/09/26 04:17:27;;;;;;;5.43;4.05;;;15.50;65.40;;;;;;5065798;28;20067;-46
2023/09/26 04:19:54;;;;;;;3.33;3.03;;;15.50;65.50;;;;;;5059467;28;20038;-45
2023/09/26 04:22:24;;;;;;;6.40;2.65;;;15.50;65.50;;;;;;5050313;28;20074;-45
2023/09/26 04:24:53;;;;;;;4.40;2.85;;;15.50;65.60;;;;;;5053757;28;20056;-45
2023/09/26 04:27:19;;;;;;;2.75;2.55;;;15.50;65.60;;;;;;5051340;28;20052;-47
2023/09/26 04:29:51;;;;;;;4.45;2.67;;;15.60;66.40;;;;;;5050089;28;20052;-47
2023/09/26 04:32:18;;;;;;;3.25;2.95;;;15.60;65.70;;;;;;5059493;28;20045;-47
2023/09/26 04:34:45;;;;;;;3.70;2.75;;;15.60;65.80;;;;;;5056861;28;20071;-49
2023/09/26 04:37:18;;;;;;;3.22;2.45;;;15.60;65.80;;;;;;5062460;28;20438;-47
2023/09/26 04:39:45;;;;;;;5.30;2.95;;;15.60;65.90;;;;;;5060710;28;20565;-44
2023/09/26 04:42:11;;;;;;;3.60;2.55;;;15.70;66.00;;;;;;5048130;28;20064;-49
2023/09/26 04:44:38;;;;;;;2.90;2.60;;;15.70;66.00;;;;;;5052809;28;20072;-47
2023/09/26 04:47:05;;;;;;;7.70;4.03;;;15.70;66.10;;;;;;5062169;28;20569;-48
2023/09/26 04:49:33;;;;;;;5.90;2.60;;;15.70;66.10;;;;;;5060750;28;20127;-48
2023/09/26 04:52:01;;;;;;;3.17;2.88;;;15.70;66.10;;;;;;5053817;28;20193;-47
2023/09/26 04:54:28;;;;;;;3.42;2.65;;;15.80;66.20;;;;;;5058778;28;20124;-47
2023/09/26 04:56:54;;;;;;;3.05;2.63;;;15.80;66.30;;;;;;5064727;28;20090;-49
2023/09/26 04:59:21;;;;;;;3.28;2.63;;;15.80;66.30;;;;;;5058980;28;20068;-46
2023/09/26 05:01:49;;;;;;;6.13;2.72;;;15.90;66.30;;;;;;5062891;28;20094;-47
2023/09/26 05:04:16;;;;;;;5.22;3.75;;;15.90;66.40;;;;;;5057172;28;20069;-48
2023/09/26 05:06:42;;;;;;;4.07;2.65;;;15.90;66.30;;;;;;5058951;28;20056;-45
2023/09/26 05:09:09;;;;;;;4.38;3.10;;;16.00;66.40;;;;;;5062614;28;20052;-46
2023/09/26 05:11:36;;;;;;;4.10;3.03;;;16.00;66.40;;;;;;5059049;28;20090;-46
2023/09/26 05:14:02;;;;;;;3.50;2.20;;;16.00;66.40;;;;;;5082066;22;20041;-42
2023/09/26 05:16:30;;;;;;;4.35;2.83;;;16.00;66.40;;;;;;5030460;28;20045;-43
2023/09/26 05:18:56;;;;;;;2.80;2.50;;;16.00;66.40;;;;;;5030768;28;20050;-43
2023/09/26 05:21:23;;;;;;;5.05;2.47;;;16.10;66.30;;;;;;5031707;28;20041;-47
2023/09/26 05:23:50;;;;;;;2.58;2.20;;;16.10;66.20;;;;;;5026668;28;20037;-46
2023/09/26 05:26:17;;;;;;;3.15;2.85;;;16.10;66.20;;;;;;5024608;28;20057;-43
2023/09/26 05:28:44;;;;;;;3.33;2.63;;;16.10;66.10;;;;;;5025292;28;20091;-43
2023/09/26 05:31:10;;;;;;;3.53;2.75;;;16.10;66.00;;;;;;5024287;28;20065;-44
2023/09/26 05:33:37;;;;;;;3.42;3.00;;;16.10;65.90;;;;;;5020463;28;20107;-43
2023/09/26 05:36:04;;;;;;;3.80;2.38;;;16.10;65.90;;;;;;5016968;28;20048;-45
2023/09/26 05:38:31;;;;;;;5.00;2.78;;;16.00;65.80;;;;;;5023219;28;20037;-48
2023/09/26 05:40:58;;;;;;;3.65;2.40;;;16.00;65.80;;;;;;5025612;28;20033;-45
2023/09/26 05:43:24;;;;;;;4.55;3.22;;;16.00;65.80;;;;;;5029558;28;20485;-44
2023/09/26 05:45:51;;;;;;;4.30;2.45;;;16.00;65.70;;;;;;5026942;28;20040;-47
2023/09/26 05:48:21;;;;;;;2.55;2.30;;;15.90;65.60;;;;;;5023125;28;20096;-48
2023/09/26 05:50:48;;;;;;;4.38;2.70;;;16.00;66.00;;;;;;5020806;28;20049;-47
2023/09/26 05:53:17;;;;;;;3.03;2.22;;;15.90;65.70;;;;;;5020100;28;20045;-46
2023/09/26 05:55:44;;;;;;;2.70;2.47;;;15.90;65.80;;;;;;5024902;28;20129;-47
2023/09/26 05:58:11;;;;;;;2.83;2.28;;;15.90;65.80;;;;;;5023815;28;20046;-46
2023/09/26 06:00:38;;;;;;;3.35;2.20;;;15.90;65.80;;;;;;5026729;28;20052;-46
2023/09/26 06:03:05;;;;;;;3.67;2.38;;;15.90;65.90;;;;;;5025102;28;20461;-48
2023/09/26 06:05:36;;;;;;;5.18;2.58;;;15.90;65.90;;;;;;5016359;28;20088;-46
2023/09/26 06:08:03;;;;;;;3.85;2.25;;;15.90;66.10;;;;;;5019706;28;20667;-46
2023/09/26 06:10:29;;;;;;;5.20;2.90;;;15.90;66.00;;;;;;5022693;28;20034;-46
2023/09/26 06:12:56;;;;;;;2.70;2.00;;;15.90;66.10;;;;;;5017564;28;20036;-46
2023/09/26 06:15:23;;;;;;;5.22;3.60;;;15.90;66.10;;;;;;5028977;28;20060;-45
2023/09/26 06:17:57;;;;;;;3.40;2.15;;;15.90;66.30;;;;;;5023137;28;20049;-47
2023/09/26 06:20:27;;;;;;;4.07;2.60;;;15.90;66.30;;;;;;5023504;28;20044;-46
2023/09/26 06:22:54;;;;;;;5.85;2.28;;;16.00;66.40;;;;;;5024111;28;20123;-45
2023/09/26 06:25:24;;;;;;;2.70;2.17;;;16.00;66.30;;;;;;5020955;28;20560;-47
2023/09/26 06:27:51;;;;;;;2.97;2.25;;;16.00;66.30;;;;;;5020518;28;20049;-45
2023/09/26 06:30:19;;;;;;;4.75;2.17;;;16.10;66.30;;;;;;5023227;28;20609;-47
2023/09/26 06:32:45;;;;;;;8.52;3.35;;;16.10;66.30;;;;;;5024309;28;20045;-45
2023/09/26 06:35:12;;;;;;;4.50;3.00;;;16.10;66.40;;;;;;5015597;28;20069;-47
2023/09/26 06:37:39;;;;;;;4.00;2.70;;;16.10;66.40;;;;;;5021291;28;20033;-46
2023/09/26 06:40:06;;;;;;;2.72;2.05;;;16.10;66.50;;;;;;5020709;28;20037;-46
2023/09/26 06:42:33;;;;;;;3.40;2.17;;;16.20;66.60;;;;;;5028072;28;20456;-45
2023/09/26 06:45:04;;;;;;;3.03;2.40;;;16.20;66.70;;;;;;5024435;28;20042;-46
2023/09/26 06:47:32;;;;;;;4.65;2.50;;;16.20;66.80;;;;;;5024664;28;20112;-45
2023/09/26 06:49:59;;;;;;;3.35;2.30;;;16.20;67.00;;;;;;5025412;28;20045;-46
2023/09/26 06:52:26;;;;;;;3.75;2.70;;;16.20;66.90;;;;;;5030693;28;20068;-47
2023/09/26 06:54:53;;;;;;;4.60;2.70;;;16.20;67.00;;;;;;5028176;28;20041;-46
2023/09/26 06:57:26;;;;;;;2.78;2.25;;;16.30;67.20;;;;;;5029101;28;20060;-48
2023/09/26 06:59:52;;;;;;;;;;;16.30;67.20;;;;;;5028151;28;20061;-48
2023/09/26 07:02:20;;;;;;;3.15;2.60;;;16.40;67.20;;;;;;5027563;28;20413;-50
2023/09/26 07:04:52;;;;;;;2.30;2.10;;;16.50;66.70;;;;;;5023392;28;20120;-47
2023/09/26 07:07:19;;;;;;;5.82;2.53;;;16.50;66.80;;;;;;5026518;28;20512;-49
2023/09/26 07:09:45;;;;;;;4.93;3.10;;;16.50;66.80;;;;;;5024637;28;20049;-46
2023/09/26 07:12:12;;;;;;;3.88;2.85;;;16.50;66.80;;;;;;5027751;28;20046;-48
2023/09/26 07:14:39;;;;;;;4.35;2.90;;;16.60;66.70;;;;;;5028644;28;20671;-50
2023/09/26 07:17:09;;;;;;;3.47;2.33;;;16.60;66.80;;;;;;5021130;28;20038;-48
2023/09/26 07:19:35;;;;;;;4.07;2.70;;;16.70;67.10;;;;;;5028577;28;20030;-51
2023/09/26 07:22:02;;;;;;;2.22;1.98;;;16.70;67.00;;;;;;5017704;28;20045;-51
2023/09/26 07:24:29;;;;;;;3.70;2.40;;;16.70;67.10;;;;;;5023640;28;20046;-48
2023/09/26 07:27:14;;;;;;;3.70;2.70;;;16.80;67.20;;;;;;5027203;28;20503;-51
2023/09/26 07:29:46;;;;;;;2.97;2.47;;;16.90;67.20;;;;;;5027998;28;20124;-49
2023/09/26 07:32:15;;;;;;;6.30;2.83;;;16.90;67.50;;;;;;5027574;28;20042;-46
2023/09/26 07:34:42;;;;;;;3.58;2.40;;;17.00;67.60;;;;;;5027058;28;20543;-51
2023/09/26 07:37:11;;;;;;;4.85;2.00;;;17.00;67.20;;;;;;5028893;28;20041;-51
2023/09/26 07:39:37;;;;;;;3.53;2.25;;;17.10;67.20;;;;;;5030036;28;20034;-49
2023/09/26 07:42:04;;;;;;;5.65;2.35;;;17.20;67.20;;;;;;5027652;28;20045;-48
2023/09/26 07:44:32;;;;;;;6.75;2.78;;;17.20;67.10;;;;;;5021899;28;20399;-50
2023/09/26 07:46:59;;;;;;;5.53;3.00;;;17.30;67.00;;;;;;5025159;28;20045;-52
2023/09/26 07:49:26;;;;;;;6.18;3.22;;;17.30;67.00;;;;;;5029593;28;20046;-46
2023/09/26 07:51:53;;;;;;;4.75;2.60;;;17.40;67.00;;;;;;5027878;28;20495;-47
2023/09/26 07:54:19;;;;;;;5.63;2.72;;;17.40;66.90;;;;;;5022820;28;20038;-47
2023/09/26 07:56:46;;;;;;;4.03;2.60;;;17.50;66.80;;;;;;5028309;28;20091;-48
2023/09/26 07:59:13;;;;;;;4.28;2.58;;;17.50;66.50;;;;;;5026281;28;20121;-50
2023/09/26 08:01:40;;;;;;;5.32;2.75;;;17.50;66.70;;;;;;5023565;28;20467;-50
2023/09/26 08:04:07;;;;;;;5.95;2.95;;;17.60;66.50;;;;;;5019830;28;20057;-46
2023/09/26 08:06:34;;;;;;;3.92;2.53;;;17.60;66.60;;;;;;5020187;28;20041;-51
2023/09/26 08:09:01;;;;;;;3.95;2.40;;;17.60;66.50;;;;;;5021533;28;20046;-47
2023/09/26 08:11:28;;;;;;;7.82;2.67;;;17.60;66.50;;;;;;5028270;28;20562;-50
2023/09/26 08:13:56;;;;;;;5.03;2.45;;;17.70;66.50;;;;;;5027260;28;21895;-47
2023/09/26 08:16:23;;;;;;;6.28;2.92;;;17.70;66.50;;;;;;5027272;28;20054;-52
2023/09/26 08:18:50;;;;;;;4.47;2.22;;;17.80;66.50;;;;;;5028010;28;20064;-50
2023/09/26 08:21:18;;;;;;;10.77;2.60;;;17.80;66.70;;;;;;5029837;28;20026;-49
2023/09/26 08:23:44;;;;;;;3.85;2.35;;;17.80;66.70;;;;;;5019542;28;20126;-46
2023/09/26 08:26:12;;;;;;;6.80;3.38;;;17.90;66.70;;;;;;5024374;28;20047;-48
2023/09/26 08:28:39;;;;;;;7.30;2.80;;;17.90;66.60;;;;;;5028349;28;20068;-52
2023/09/26 08:31:15;;;;;;;5.07;2.67;;;18.00;66.60;;;;;;5023416;28;20416;-46
2023/09/26 08:33:43;;;;;;;6.53;2.40;;;18.00;66.90;;;;;;5015420;28;20045;-46
2023/09/26 08:36:17;;;;;;;5.35;2.80;;;18.10;66.70;;;;;;5019149;28;20097;-46
2023/09/26 08:38:45;;;;;;;6.63;2.88;;;18.20;67.10;;;;;;5030142;28;20049;-48
2023/09/26 08:41:12;;;;;;;8.98;3.60;;;18.20;66.80;;;;;;5027450;28;20072;-47
2023/09/26 08:43:39;;;;;;;4.53;2.75;;;18.30;66.70;;;;;;5021778;28;20042;-47
2023/09/26 08:46:06;;;;;;;4.15;2.58;;;18.30;66.70;;;;;;5024807;28;20231;-48
2023/09/26 08:48:34;;;;;;;5.43;2.67;;;18.40;66.60;;;;;;5029261;28;20045;-48
2023/09/26 08:51:02;;;;;;;6.03;3.10;;;18.50;66.60;;;;;;5027413;28;20565;-51
2023/09/26 08:53:29;;;;;;;8.65;3.13;;;18.50;66.50;;;;;;5021662;28;20111;-48
2023/09/26 08:55:57;;;;;;;5.93;3.33;;;18.60;66.50;;;;;;5024636;28;20037;-51
2023/09/26 08:58:25;;;;;;;4.35;2.60;;;18.70;66.40;;;;;;5027330;28;20033;-49
2023/09/26 09:00:52;;;;;;;6.90;2.70;;;18.80;66.40;;;;;;5024395;28;20117;-47
2023/09/26 09:03:19;;;;;;;8.07;2.80;;;18.90;66.20;;;;;;5021071;28;20034;-48
2023/09/26 09:05:45;;;;;;;6.63;2.13;;;18.90;66.20;;;;;;5023057;28;20049;-46
2023/09/26 09:08:20;;;;;;;6.70;2.15;;;19.00;65.70;;;;;;5020278;28;20557;-51
2023/09/26 09:10:52;;;;;;;3.67;2.40;;;19.10;65.90;;;;;;5024523;28;20654;-46
2023/09/26 09:13:37;;;;;;;7.37;2.80;;;19.10;65.30;;;;;;5027473;28;20447;-51
2023/09/26 09:16:12;;;;;;;2.13;1.90;;;19.20;65.30;;;;;;5020012;28;20304;-47
2023/09/26 09:18:43;;;;;;;4.32;2.60;;;19.20;64.40;;;;;;5023373;28;20045;-49
2023/09/26 09:21:22;;;;;;;2.70;2.13;;;19.30;64.30;;;;;;5028000;28;20037;-48
2023/09/26 09:23:50;;;;;;;4.35;1.80;;;19.30;64.10;;;;;;5027990;28;20037;-50
2023/09/26 09:26:19;;;;;;;3.33;1.92;;;19.40;64.00;;;;;;5026593;28;20049;-48
2023/09/26 09:28:46;;;;;;;3.00;2.08;;;19.40;63.60;;;;;;5020422;28;20197;-48
2023/09/26 09:31:15;;;;;;;5.97;2.75;;;19.50;63.70;;;;;;5028119;28;20041;-48
2023/09/26 09:33:46;;;;;;;4.22;2.28;;;19.50;63.60;;;;;;5023704;28;20129;-50
2023/09/26 09:36:14;;;;;;;3.80;2.15;;;19.50;63.60;;;;;;5022004;28;20034;-48
2023/09/26 09:38:41;;;;;;;5.18;2.60;;;19.60;63.80;;;;;;5028810;28;20048;-51
2023/09/26 09:41:08;;;;;;;3.47;2.20;;;19.70;63.70;;;;;;5021709;28;20061;-47
2023/09/26 09:43:36;;;;;;;2.95;2.50;;;19.70;63.50;;;;;;5028229;28;20043;-50
2023/09/26 09:46:08;;;;;;;3.97;2.25;;;19.70;63.60;;;;;;5025168;28;20464;-49
2023/09/26 09:48:38;;;;;;;;;;;19.70;63.80;;;;;;5017516;28;20051;-51
2023/09/26 09:51:09;;;;;;;4.65;2.25;;;19.80;63.50;;;;;;5027215;28;19967;-51
2023/09/26 09:53:36;;;;;;;3.80;1.92;;;19.90;63.00;;;;;;5014325;28;20041;-47
2023/09/26 09:56:08;;;;;;;4.25;2.58;;;19.90;62.70;;;;;;5024542;28;20900;-50
2023/09/26 09:58:44;;;;;;;2.97;2.22;;;20.00;62.80;;;;;;5020870;28;20124;-47
2023/09/26 10:01:14;;;;;;;5.28;1.98;;;20.00;63.10;;;;;;5026096;28;20068;-51
2023/09/26 10:03:41;;;;;;;2.33;1.88;;;20.00;63.00;;;;;;5016251;28;20061;-48
2023/09/26 10:06:08;;;;;;;4.13;2.38;;;20.10;63.10;;;;;;5019311;28;20049;-50
2023/09/26 10:08:37;;;;;;;2.88;1.60;;;20.20;63.30;;;;;;5027013;28;20045;-50
2023/09/26 10:11:05;;;;;;;4.25;2.47;;;20.20;63.10;;;;;;5025392;28;20048;-46
2023/09/26 10:13:35;;;;;;;3.60;1.83;;;20.30;62.80;;;;;;5024214;28;20562;-46
2023/09/26 10:16:18;;;;;;;3.30;2.25;;;20.30;62.50;;;;;;5025358;28;20510;-48
2023/09/26 10:18:47;;;;;;;3.42;2.33;;;20.40;62.10;;;;;;5020261;28;20507;-48
2023/09/26 10:21:27;;;;;;;4.00;2.03;;;20.50;62.10;;;;;;5018147;28;20092;-49
2023/09/26 10:24:08;;;;;;;4.38;1.67;;;20.60;61.70;;;;;;5027395;28;20053;-48
2023/09/26 10:26:49;;;;;;;1.92;1.63;;;20.70;62.00;;;;;;5030860;28;20045;-47
2023/09/26 10:29:31;;;;;;;4.40;1.88;;;20.70;61.20;;;;;;5017609;28;20065;-47
2023/09/26 10:32:04;;;;;;;4.38;2.15;;;20.80;61.50;;;;;;5027253;28;20050;-47
2023/09/26 10:34:38;;;;;;;3.88;1.88;;;20.90;61.80;;;;;;5014745;28;20061;-52
2023/09/26 10:37:20;;;;;;;6.75;1.92;;;20.90;62.00;;;;;;5021906;28;20050;-48
2023/09/26 10:39:48;;;;;;;3.15;1.70;;;21.00;61.30;;;;;;5027309;28;20045;-51
2023/09/26 10:42:23;;;;;;;2.95;2.13;;;21.00;60.90;;;;;;5025984;28;20553;-47
2023/09/26 10:44:53;;;;;;;2.22;1.65;;;21.10;60.80;;;;;;5022940;28;20403;-50
2023/09/26 10:47:23;;;;;;;1.90;1.45;;;21.20;60.10;;;;;;5017315;28;20679;-47
2023/09/26 10:49:49;;;;;;;2.83;1.45;;;21.20;59.70;;;;;;5027765;28;20041;-46
2023/09/26 10:52:16;;;;;;;2.47;1.65;;;21.30;59.80;;;;;;5019394;28;20052;-47
2023/09/26 10:54:43;;;;;;;2.70;1.52;;;21.40;60.10;;;;;;5026611;28;20100;-46
2023/09/26 10:57:18;;;;;;;1.92;1.30;;;21.50;59.80;;;;;;5024593;28;20126;-49
2023/09/26 10:59:44;;;;;;;1.40;1.30;;;21.60;59.90;;;;;;5028550;28;20124;-47
2023/09/26 11:02:11;;;;;;;3.15;1.42;;;21.60;60.20;;;;;;5017732;28;20041;-49
2023/09/26 11:04:39;;;;;;;4.93;1.88;;;21.70;59.40;;;;;;5021105;28;20072;-48
2023/09/26 11:07:26;;;;;;;2.35;1.85;;;21.80;59.70;;;;;;5023697;28;20045;-47
2023/09/26 11:09:53;;;;;;;2.67;1.58;;;21.90;59.00;;;;;;5027843;28;20037;-46
2023/09/26 11:12:20;;;;;;;3.13;2.03;;;22.00;59.10;;;;;;5034843;28;20041;-48
2023/09/26 11:14:47;;;;;;;1.73;1.40;;;22.10;59.00;;;;;;5021150;28;20038;-48
2023/09/26 11:17:13;;;;;;;3.20;1.92;;;22.20;58.50;;;;;;5012880;28;20042;-49
2023/09/26 11:19:40;;;;;;;3.28;1.52;;;22.30;58.30;;;;;;5011863;28;20096;-50
2023/09/26 11:22:07;;;;;;;3.65;1.25;;;22.40;58.20;;;;;;5017313;28;20747;-48
2023/09/26 11:24:34;;;;;;;1.45;1.23;;;22.50;57.80;;;;;;5014463;28;20107;-47
2023/09/26 11:27:04;;;;;;;2.15;1.63;;;22.60;58.00;;;;;;5039119;22;20045;-50
2023/09/26 11:29:34;;;;;;;2.67;1.47;;;22.70;58.10;;;;;;5062884;28;20485;-49
2023/09/26 11:32:04;;;;;;;3.00;1.50;;;22.70;57.50;;;;;;5068286;28;20279;-48
2023/09/26 11:34:34;;;;;;;2.55;1.70;;;22.80;57.30;;;;;;5066860;28;20141;-52
2023/09/26 11:37:04;;;;;;;4.80;1.90;;;22.90;57.40;;;;;;5069139;28;20506;-53
2023/09/26 11:39:31;;;;;;;4.55;1.42;;;23.00;56.80;;;;;;5063710;28;20108;-50
2023/09/26 11:42:05;;;;;;;3.60;2.00;;;23.10;56.30;;;;;;5065057;28;20394;-48
2023/09/26 11:44:33;;;;;;;1.77;1.67;;;23.10;55.40;;;;;;5066344;28;20040;-52
2023/09/26 11:47:00;;;;;;;2.00;1.67;;;23.30;56.80;;;;;;5061683;28;20111;-52
2023/09/26 11:49:28;;;;;;;4.47;1.90;;;23.40;56.70;;;;;;5071361;28;20045;-47
2023/09/26 11:51:55;;;;;;;4.68;1.73;;;23.50;56.70;;;;;;5067492;28;20036;-47
2023/09/26 11:54:22;;;;;;;2.22;1.65;;;23.50;55.80;;;;;;5065807;28;20101;-51
2023/09/26 11:56:51;;;;;;;4.25;1.60;;;23.70;55.70;;;;;;5063701;28;20037;-47
2023/09/26 11:59:18;;;;;;;3.65;1.88;;;23.80;56.10;;;;;;5070079;28;20169;-49
2023/09/26 12:01:46;;;;;;;3.28;1.80;;;24.00;54.80;;;;;;5065916;28;20120;-48
2023/09/26 12:04:13;;;;;;;3.05;1.88;;;24.10;55.00;;;;;;5063600;28;20036;-48
2023/09/26 12:06:43;;;;;;;3.67;1.77;;;24.30;54.60;;;;;;5069495;28;20044;-51
2023/09/26 12:09:20;;;;;;;3.55;1.65;;;24.40;54.70;;;;;;5063196;28;20068;-50
2023/09/26 12:11:49;;;;;;;3.85;2.15;;;24.60;54.60;;;;;;5063869;28;20037;-49
2023/09/26 12:14:16;;;;;;;3.90;1.50;;;24.80;53.70;;;;;;5066084;28;20131;-48
2023/09/26 12:16:50;;;;;;;2.72;1.38;;;24.90;51.00;;;;;;5067001;28;20041;-46
2023/09/26 12:19:19;;;;;;;2.10;1.63;;;25.10;49.60;;;;;;5070605;28;20055;-52
2023/09/26 12:21:46;;;;;;;1.83;1.35;;;25.20;50.10;;;;;;5071289;28;20111;-50
2023/09/26 12:24:16;;;;;;;2.85;1.50;;;25.30;49.40;;;;;;5063245;28;20087;-50
2023/09/26 12:26:46;;;;;;;2.88;1.30;;;25.40;48.60;;;;;;5062763;28;20111;-49
2023/09/26 12:29:16;;;;;;;3.17;1.52;;;25.50;48.50;;;;;;5071155;28;20053;-51
2023/09/26 12:31:43;;;;;;;2.15;1.77;;;25.60;48.60;;;;;;5071779;28;20045;-49
2023/09/26 12:34:13;;;;;;;2.28;1.45;;;25.70;48.20;;;;;;5063278;28;20053;-52
2023/09/26 12:36:41;;;;;;;2.15;1.50;;;25.80;47.70;;;;;;5069477;28;20089;-47
2023/09/26 12:39:08;;;;;;;1.88;1.67;;;25.80;47.50;;;;;;5070415;28;20064;-52
2023/09/26 12:41:35;;;;;;;4.30;2.22;;;25.90;48.20;;;;;;5068581;28;20514;-51
2023/09/26 12:44:02;;;;;;;2.72;1.67;;;25.90;47.30;;;;;;5066824;28;20143;-49
2023/09/26 12:46:29;;;;;;;2.58;1.63;;;26.00;47.00;;;;;;5070822;28;20036;-51
2023/09/26 12:48:56;;;;;;;3.17;1.40;;;26.10;47.40;;;;;;5065108;28;20094;-49
2023/09/26 12:51:28;;;;;;;2.15;1.75;;;26.10;47.10;;;;;;5066203;28;20110;-51
2023/09/26 12:53:54;;;;;;;1.63;1.33;;;26.10;47.50;;;;;;5069881;28;20045;-51
2023/09/26 12:56:21;;;;;;;3.22;1.98;;;26.20;48.10;;;;;;5070690;28;20036;-51